Time;durP1;ratioP1;P1;durP2;ratioP2;P2;SDS_P1;SDS_P2;PMS_P1;PMS_P2;Temp;Humidity;BMP_temperature;BMP_pressure;BME280_temperature;BME280_humidity;BME280_pressure;Samples;Min_cycle;Max_cycle;Signal;HPM_P1;HPM_P2
2023/02/18 00:01:13;;;;;;;43.07;18.20;;;9.30;99.90;;;;;;4909167;29;39672;-78
2023/02/18 00:03:40;;;;;;;48.22;19.25;;;9.30;99.90;;;;;;4889137;29;37342;-79
2023/02/18 00:06:14;;;;;;;39.43;18.70;;;9.30;99.90;;;;;;4905440;29;36924;-79
2023/02/18 00:08:41;;;;;;;56.77;20.47;;;9.30;99.90;;;;;;4896440;29;37484;-79
2023/02/18 00:11:08;;;;;;;63.17;21.80;;;9.40;99.90;;;;;;4896545;29;37553;-79
2023/02/18 00:13:35;;;;;;;58.83;21.37;;;9.40;99.90;;;;;;4893566;29;38023;-80
2023/02/18 00:16:07;;;;;;;52.97;21.83;;;9.40;99.90;;;;;;4893302;29;37431;-79
2023/02/18 00:18:34;;;;;;;45.05;19.58;;;9.40;99.90;;;;;;4900016;29;48205;-79
2023/02/18 00:21:03;;;;;;;64.40;23.33;;;9.40;99.90;;;;;;4909186;29;38843;-79
2023/02/18 00:23:30;;;;;;;58.13;22.13;;;9.40;99.90;;;;;;4908257;29;47649;-79
2023/02/18 00:26:05;;;;;;;51.53;21.27;;;9.40;99.90;;;;;;4891249;29;38166;-79
2023/02/18 00:28:32;;;;;;;58.57;22.07;;;9.50;99.90;;;;;;4898979;29;48138;-79
2023/02/18 00:30:58;;;;;;;52.10;20.57;;;9.50;99.90;;;;;;4902357;29;38445;-79
2023/02/18 00:33:24;;;;;;;79.30;25.37;;;9.50;99.90;;;;;;4901661;29;38313;-79
2023/02/18 00:35:50;;;;;;;62.07;23.23;;;9.50;99.90;;;;;;4921577;28;38166;-80
2023/02/18 00:38:16;;;;;;;74.80;24.70;;;9.50;99.90;;;;;;4910378;29;38030;-79
2023/02/18 00:40:42;;;;;;;62.37;24.53;;;9.50;99.90;;;;;;4896911;29;37619;-80
2023/02/18 00:43:09;;;;;;;72.67;26.83;;;9.50;99.90;;;;;;4899278;29;38720;-79
2023/02/18 00:45:35;;;;;;;59.13;24.90;;;9.50;99.90;;;;;;4904255;29;37175;-79
2023/02/18 00:48:01;;;;;;;58.93;24.67;;;9.50;99.90;;;;;;4902979;29;36301;-79
2023/02/18 00:50:27;;;;;;;65.40;26.00;;;9.60;99.90;;;;;;4905849;29;38823;-79
2023/02/18 00:52:53;;;;;;;59.07;25.13;;;9.60;99.90;;;;;;4886688;29;38726;-79
2023/02/18 00:55:19;;;;;;;68.50;27.27;;;9.60;99.90;;;;;;4885109;29;37334;-79
2023/02/18 00:57:45;;;;;;;59.57;24.87;;;9.60;99.90;;;;;;4922242;29;37285;-80
2023/02/18 01:00:12;;;;;;;55.93;25.00;;;9.60;99.90;;;;;;4893665;29;39278;-79
2023/02/18 01:02:38;;;;;;;71.23;27.17;;;9.60;99.90;;;;;;4927450;28;47288;-79
2023/02/18 01:05:04;;;;;;;55.17;24.30;;;9.60;99.90;;;;;;4907160;29;38177;-79
2023/02/18 01:07:30;;;;;;;58.80;25.40;;;9.60;99.90;;;;;;4902054;29;37555;-79
2023/02/18 01:09:56;;;;;;;60.47;26.17;;;9.70;99.90;;;;;;4884754;29;38655;-79
2023/02/18 01:12:22;;;;;;;55.30;24.70;;;9.70;99.90;;;;;;4910660;29;38569;-80
2023/02/18 01:14:48;;;;;;;78.10;27.40;;;9.70;99.90;;;;;;4888472;29;36847;-79
2023/02/18 01:17:14;;;;;;;65.90;26.53;;;9.70;99.90;;;;;;4891881;28;35868;-79
2023/02/18 01:19:41;;;;;;;54.90;24.37;;;9.70;99.90;;;;;;4898015;29;37701;-79
2023/02/18 01:22:07;;;;;;;72.77;25.47;;;9.70;99.90;;;;;;4868332;29;37106;-79
2023/02/18 01:24:33;;;;;;;68.13;24.97;;;9.70;99.90;;;;;;4885065;29;37777;-79
2023/02/18 01:26:59;;;;;;;74.57;25.67;;;9.80;99.90;;;;;;4899729;29;37583;-80
2023/02/18 01:29:25;;;;;;;72.37;25.47;;;9.80;99.90;;;;;;4904016;29;39691;-79
2023/02/18 01:31:51;;;;;;;60.47;23.63;;;9.80;99.90;;;;;;4906928;29;38361;-79
2023/02/18 01:34:17;;;;;;;73.97;23.83;;;9.80;99.90;;;;;;4905371;29;36250;-79
2023/02/18 01:36:43;;;;;;;56.83;22.57;;;9.80;99.90;;;;;;4889567;29;36233;-79
2023/02/18 01:39:09;;;;;;;66.20;22.50;;;9.80;99.90;;;;;;4903368;29;38521;-79
2023/02/18 01:41:35;;;;;;;71.30;24.23;;;9.80;99.90;;;;;;4904640;29;38244;-81
2023/02/18 01:44:17;;;;;;;66.57;24.20;;;9.70;99.90;;;;;;4907663;28;37586;-81
2023/02/18 01:46:43;;;;;;;57.80;23.23;;;9.70;99.90;;;;;;4912795;29;38778;-81
2023/02/18 01:49:15;;;;;;;69.47;24.57;;;9.70;99.90;;;;;;4891066;29;38157;-81
2023/02/18 01:51:56;;;;;;;68.93;23.85;;;9.70;99.90;;;;;;4892751;29;39085;-81
2023/02/18 01:54:31;;;;;;;67.67;24.77;;;9.70;99.90;;;;;;4907377;29;38392;-78
2023/02/18 01:57:04;;;;;;;80.87;25.10;;;9.70;99.90;;;;;;4882331;29;36210;-78
2023/02/18 01:59:35;;;;;;;69.60;24.43;;;9.70;99.90;;;;;;4907201;29;48219;-81
2023/02/18 02:02:03;;;;;;;66.63;24.58;;;9.70;99.90;;;;;;5299477;23;37473;-80
2023/02/18 02:04:29;;;;;;;55.07;22.83;;;9.70;99.90;;;;;;4901871;29;38900;-79
2023/02/18 02:06:55;;;;;;;60.90;24.77;;;9.70;99.90;;;;;;4900273;29;37251;-79
2023/02/18 02:09:24;;;;;;;77.10;26.07;;;9.70;99.90;;;;;;4901522;29;37657;-80
2023/02/18 02:12:04;;;;;;;64.23;22.60;;;9.70;99.90;;;;;;4916542;29;36918;-79
2023/02/18 02:15:02;;;;;;;63.47;22.83;;;9.70;99.90;;;;;;4907159;29;46923;-80
2023/02/18 02:17:58;;;;;;;62.50;21.57;;;9.70;99.90;;;;;;4913363;29;47132;-79
2023/02/18 02:21:02;;;;;;;56.23;19.80;;;9.80;99.90;;;;;;4906809;29;39280;-79
2023/02/18 02:23:41;;;;;;;48.60;17.90;;;9.80;99.90;;;;;;4913284;29;48169;-79
2023/02/18 02:26:41;;;;;;;39.83;15.93;;;9.80;99.90;;;;;;4916983;29;38466;-79
2023/02/18 02:29:41;;;;;;;40.17;14.87;;;9.80;99.90;;;;;;4910852;29;36184;-79
2023/02/18 02:32:41;;;;;;;39.87;15.57;;;9.80;99.90;;;;;;4911718;29;39637;-78
2023/02/18 02:35:32;;;;;;;35.97;14.23;;;9.90;99.90;;;;;;4909160;29;37161;-78
2023/02/18 02:38:28;;;;;;;46.50;16.67;;;9.90;99.90;;;;;;4897609;29;37035;-79
2023/02/18 02:40:59;;;;;;;45.23;17.20;;;9.90;99.90;;;;;;4884702;29;47535;-79
2023/02/18 02:44:02;;;;;;;50.97;18.80;;;9.90;99.90;;;;;;4910943;29;38569;-79
2023/02/18 02:46:39;;;;;;;;;;;10.00;99.90;;;;;;4904473;29;48785;-79
2023/02/18 02:49:18;;;;;;;63.87;19.97;;;10.00;99.90;;;;;;4908515;29;38521;-79
2023/02/18 02:51:55;;;;;;;71.67;22.80;;;10.00;99.90;;;;;;4911735;29;36707;-79
2023/02/18 02:54:24;;;;;;;75.50;25.17;;;10.00;99.90;;;;;;4912973;29;39877;-79
2023/02/18 02:57:04;;;;;;;66.20;23.60;;;10.00;99.90;;;;;;4910795;29;37551;-79
2023/02/18 02:59:31;;;;;;;67.85;25.48;;;10.00;99.90;;;;;;4910702;29;48362;-80
2023/02/18 03:01:57;;;;;;;63.43;25.37;;;10.10;99.90;;;;;;4903481;29;36683;-79
2023/02/18 03:04:58;;;;;;;70.37;26.73;;;10.10;99.90;;;;;;4890206;29;37706;-80
2023/02/18 03:07:36;;;;;;;75.73;26.40;;;10.10;99.90;;;;;;4879843;29;37761;-79
2023/02/18 03:10:23;;;;;;;59.17;21.10;;;10.10;99.90;;;;;;4891166;29;38277;-79
2023/02/18 03:13:10;;;;;;;63.40;22.60;;;10.10;99.90;;;;;;4895746;29;47297;-79
2023/02/18 03:16:07;;;;;;;53.10;20.33;;;10.10;99.90;;;;;;4888079;29;48221;-79
2023/02/18 03:18:36;;;;;;;53.27;21.17;;;10.10;99.90;;;;;;4892284;29;48467;-78
2023/02/18 03:21:12;;;;;;;49.07;19.73;;;10.10;99.90;;;;;;4888987;29;39330;-79
2023/02/18 03:23:57;;;;;;;50.57;19.40;;;10.10;99.90;;;;;;4893649;29;34807;-79
2023/02/18 03:26:25;;;;;;;46.80;19.03;;;10.10;99.90;;;;;;4894139;29;37625;-79
2023/02/18 03:28:54;;;;;;;43.43;18.37;;;10.10;99.90;;;;;;4907686;29;38881;-79
2023/02/18 03:31:24;;;;;;;45.27;18.33;;;10.10;99.90;;;;;;4895578;29;37560;-79
2023/02/18 03:34:04;;;;;;;46.40;19.33;;;10.10;99.90;;;;;;4892254;29;37858;-78
2023/02/18 03:36:33;;;;;;;40.80;18.73;;;10.10;99.90;;;;;;4896826;29;48351;-79
2023/02/18 03:39:03;;;;;;;44.77;18.77;;;10.10;99.90;;;;;;4894392;29;38172;-79
2023/02/18 03:41:31;;;;;;;37.77;17.10;;;10.10;99.90;;;;;;4890603;29;47192;-79
2023/02/18 03:44:03;;;;;;;37.43;16.27;;;10.10;99.90;;;;;;4896272;29;36023;-80
2023/02/18 03:46:30;;;;;;;34.92;15.63;;;10.00;99.90;;;;;;4891612;29;47405;-79
2023/02/18 03:48:56;;;;;;;36.90;15.77;;;10.00;99.90;;;;;;4896256;29;38538;-79
2023/02/18 03:51:23;;;;;;;34.57;15.40;;;10.10;99.90;;;;;;4890001;29;37256;-79
2023/02/18 03:53:49;;;;;;;34.43;15.87;;;10.00;99.90;;;;;;4902349;29;36934;-79
2023/02/18 03:56:16;;;;;;;29.03;13.10;;;10.00;99.90;;;;;;4895110;29;37518;-79
2023/02/18 03:58:42;;;;;;;36.90;14.20;;;10.00;99.90;;;;;;4895220;29;37111;-79
2023/02/18 04:01:08;;;;;;;30.30;13.93;;;10.10;99.90;;;;;;4910808;29;36817;-79
2023/02/18 04:03:34;;;;;;;30.57;13.57;;;10.00;99.90;;;;;;4897587;29;37550;-79
2023/02/18 04:06:00;;;;;;;31.10;13.80;;;10.00;99.90;;;;;;4901113;29;37964;-78
2023/02/18 04:08:26;;;;;;;27.67;12.70;;;10.00;99.90;;;;;;4905472;29;38873;-78
2023/02/18 04:10:53;;;;;;;27.57;12.27;;;10.00;99.90;;;;;;4905270;29;38042;-79
2023/02/18 04:13:21;;;;;;;33.03;13.63;;;10.00;99.90;;;;;;4916381;28;37121;-79
2023/02/18 04:15:50;;;;;;;25.58;12.95;;;10.00;99.90;;;;;;4892537;29;37960;-79
2023/02/18 04:18:17;;;;;;;28.53;13.20;;;10.10;99.90;;;;;;4910518;29;38003;-79
2023/02/18 04:20:45;;;;;;;36.93;15.30;;;10.00;99.90;;;;;;4905897;29;36539;-78
2023/02/18 04:23:11;;;;;;;39.77;15.77;;;10.00;99.90;;;;;;4896499;29;36452;-78
2023/02/18 04:25:37;;;;;;;43.43;16.83;;;10.00;99.90;;;;;;4898802;29;37630;-79
2023/02/18 04:28:04;;;;;;;43.93;18.40;;;10.00;99.90;;;;;;4889358;29;38369;-79
2023/02/18 04:30:31;;;;;;;51.60;20.50;;;10.00;99.90;;;;;;4895722;29;38358;-79
2023/02/18 04:32:57;;;;;;;46.47;20.43;;;10.00;99.90;;;;;;4896143;29;36049;-78
2023/02/18 04:35:23;;;;;;;43.10;18.93;;;10.00;99.90;;;;;;4901809;29;37593;-79
2023/02/18 04:37:49;;;;;;;41.67;19.00;;;10.00;99.90;;;;;;4902776;29;37000;-78
2023/02/18 04:40:15;;;;;;;38.33;18.20;;;10.00;99.90;;;;;;4893376;29;37764;-79
2023/02/18 04:42:41;;;;;;;37.63;17.17;;;10.00;99.90;;;;;;4894640;29;35084;-78
2023/02/18 04:45:08;;;;;;;30.83;14.17;;;10.00;99.90;;;;;;4896515;29;38813;-78
2023/02/18 04:47:34;;;;;;;28.10;13.80;;;10.00;99.90;;;;;;4889905;29;38088;-78
2023/02/18 04:50:00;;;;;;;34.17;15.47;;;10.00;99.90;;;;;;4899500;29;37188;-80
2023/02/18 04:52:26;;;;;;;33.57;17.90;;;10.00;99.90;;;;;;4888074;29;37203;-78
2023/02/18 04:54:52;;;;;;;42.67;18.10;;;10.00;99.90;;;;;;4886916;28;38918;-78
2023/02/18 04:57:19;;;;;;;41.00;18.53;;;10.00;99.90;;;;;;4886580;29;35824;-78
2023/02/18 04:59:45;;;;;;;51.00;19.67;;;10.00;99.90;;;;;;4900587;28;36732;-79
2023/02/18 05:02:11;;;;;;;45.77;18.40;;;10.10;99.90;;;;;;4887938;29;38076;-78
2023/02/18 05:04:37;;;;;;;46.37;19.13;;;10.10;99.90;;;;;;4886709;29;38792;-78
2023/02/18 05:07:03;;;;;;;47.37;18.93;;;10.10;99.90;;;;;;4905020;29;38465;-78
2023/02/18 05:09:29;;;;;;;49.00;20.27;;;10.10;99.90;;;;;;4906096;29;38186;-78
2023/02/18 05:11:55;;;;;;;57.30;20.13;;;10.10;99.90;;;;;;4886762;29;36717;-78
2023/02/18 05:14:21;;;;;;;45.00;18.87;;;10.10;99.90;;;;;;4849468;29;38785;-78
2023/02/18 05:16:47;;;;;;;57.10;20.43;;;10.20;99.90;;;;;;4834021;29;38120;-79
2023/02/18 05:19:15;;;;;;;56.87;20.30;;;10.10;99.90;;;;;;4850783;29;38425;-78
2023/02/18 05:21:42;;;;;;;49.77;20.87;;;10.10;99.90;;;;;;4844336;29;37656;-78
2023/02/18 05:24:08;;;;;;;58.87;22.67;;;10.10;99.90;;;;;;4854191;29;38801;-78
2023/02/18 05:26:35;;;;;;;63.77;22.07;;;10.10;99.90;;;;;;4853956;29;38218;-78
2023/02/18 05:29:01;;;;;;;60.90;22.43;;;10.10;99.90;;;;;;4835824;29;37248;-78
2023/02/18 05:31:27;;;;;;;58.90;23.03;;;10.00;99.90;;;;;;4856064;29;49888;-78
2023/02/18 05:33:53;;;;;;;71.00;23.93;;;10.10;99.90;;;;;;4853645;29;39216;-78
2023/02/18 05:36:19;;;;;;;60.23;24.33;;;10.10;99.90;;;;;;4838828;29;38428;-78
2023/02/18 05:38:45;;;;;;;68.67;21.83;;;10.10;99.90;;;;;;4853374;29;37508;-78
2023/02/18 05:41:11;;;;;;;76.03;23.20;;;10.10;99.90;;;;;;4852057;29;37574;-78
2023/02/18 05:46:22;;;;;;;63.63;22.20;;;10.10;99.90;;;;;;4849647;29;39021;-78
2023/02/18 05:48:48;;;;;;;78.40;25.23;;;10.10;99.90;;;;;;4847381;29;38215;-79
2023/02/18 05:51:15;;;;;;;67.30;21.90;;;10.10;99.90;;;;;;4855090;29;37368;-78
2023/02/18 05:53:41;;;;;;;79.60;24.50;;;10.10;99.90;;;;;;4875233;29;38062;-78
2023/02/18 05:56:07;;;;;;;77.43;28.03;;;10.10;99.90;;;;;;4892945;29;37681;-78
2023/02/18 05:58:34;;;;;;;79.77;24.83;;;10.10;99.90;;;;;;4877533;29;38237;-77
2023/02/18 06:01:00;;;;;;;75.30;24.37;;;10.10;99.90;;;;;;4890237;29;38568;-78
2023/02/18 06:03:26;;;;;;;71.30;22.37;;;10.10;99.90;;;;;;4873560;29;37473;-80
2023/02/18 06:05:52;;;;;;;66.07;21.63;;;10.10;99.90;;;;;;4872742;29;37616;-78
2023/02/18 06:08:21;;;;;;;67.17;21.13;;;10.10;99.90;;;;;;4880571;29;37021;-79
2023/02/18 06:10:47;;;;;;;61.63;21.17;;;10.10;99.90;;;;;;4875702;29;38178;-77
2023/02/18 06:13:13;;;;;;;53.70;19.60;;;10.10;99.90;;;;;;4876440;29;38678;-78
2023/02/18 06:15:39;;;;;;;68.43;19.70;;;10.00;99.90;;;;;;4876928;29;38155;-77
2023/02/18 06:18:06;;;;;;;51.67;17.60;;;10.10;99.90;;;;;;4871419;29;38621;-80
2023/02/18 06:20:32;;;;;;;40.10;14.43;;;10.10;99.90;;;;;;4869289;29;37950;-80
2023/02/18 06:22:58;;;;;;;44.07;14.03;;;10.10;99.90;;;;;;4868343;29;38971;-77
2023/02/18 06:25:24;;;;;;;50.63;13.33;;;10.10;99.90;;;;;;4879007;29;37485;-80
2023/02/18 06:27:50;;;;;;;42.03;11.63;;;10.10;99.90;;;;;;4866770;29;37055;-79
2023/02/18 06:30:17;;;;;;;44.43;11.23;;;10.00;99.90;;;;;;4879738;29;36651;-79
2023/02/18 06:32:43;;;;;;;53.57;12.40;;;10.00;99.90;;;;;;4870780;29;38654;-79
2023/02/18 06:35:09;;;;;;;50.13;12.60;;;10.00;99.90;;;;;;4880996;29;37038;-79
2023/02/18 06:37:35;;;;;;;55.33;11.93;;;10.00;99.90;;;;;;4867570;29;37887;-79
2023/02/18 06:40:01;;;;;;;53.17;13.60;;;10.00;99.90;;;;;;4867601;29;37191;-79
2023/02/18 06:42:27;;;;;;;55.47;11.67;;;10.00;99.90;;;;;;4864872;29;37269;-79
2023/02/18 06:44:53;;;;;;;49.83;10.97;;;10.00;99.90;;;;;;4871534;29;37768;-80
2023/02/18 06:47:19;;;;;;;58.97;11.50;;;10.00;99.90;;;;;;4868591;29;38528;-79
2023/02/18 06:49:45;;;;;;;54.50;10.63;;;10.00;99.90;;;;;;4873823;29;39000;-79
2023/02/18 06:52:11;;;;;;;61.67;11.17;;;9.90;99.90;;;;;;4874181;29;37803;-79
2023/02/18 06:54:38;;;;;;;57.33;9.63;;;9.90;99.90;;;;;;4864556;29;38192;-80
2023/02/18 06:57:04;;;;;;;52.40;9.80;;;9.90;99.90;;;;;;4881350;29;37042;-79
2023/02/18 06:59:30;;;;;;;48.87;8.63;;;9.90;99.90;;;;;;4867135;29;36021;-79
2023/02/18 07:01:56;;;;;;;57.57;9.23;;;9.90;99.90;;;;;;4860459;29;37648;-79
2023/02/18 07:04:22;;;;;;;54.50;9.00;;;9.90;99.90;;;;;;4867109;29;38356;-79
2023/02/18 07:06:48;;;;;;;57.20;8.47;;;9.90;99.90;;;;;;4867402;29;37241;-79
2023/02/18 07:09:14;;;;;;;63.07;8.47;;;9.80;99.90;;;;;;4869168;29;36122;-79
2023/02/18 07:11:43;;;;;;;43.90;6.80;;;9.90;99.90;;;;;;4874110;29;38038;-80
2023/02/18 07:14:09;;;;;;;46.37;7.70;;;9.80;99.90;;;;;;4873140;29;37990;-80
2023/02/18 07:16:35;;;;;;;50.53;7.37;;;9.80;99.90;;;;;;4868033;29;37424;-80
2023/02/18 07:19:01;;;;;;;48.73;8.00;;;9.80;99.90;;;;;;4873243;29;36753;-79
2023/02/18 07:21:27;;;;;;;43.60;7.53;;;9.80;99.90;;;;;;4867346;29;38700;-79
2023/02/18 07:23:53;;;;;;;44.77;6.73;;;9.80;99.90;;;;;;4881791;29;37366;-79
2023/02/18 07:26:20;;;;;;;43.80;6.37;;;9.80;99.90;;;;;;4871341;29;37872;-80
2023/02/18 07:28:46;;;;;;;46.80;7.47;;;9.90;99.90;;;;;;4873187;29;36356;-80
2023/02/18 07:31:12;;;;;;;37.33;6.00;;;9.90;99.90;;;;;;4872610;29;37805;-79
2023/02/18 07:33:38;;;;;;;37.77;5.63;;;9.90;99.90;;;;;;4875967;29;39266;-80
2023/02/18 07:36:05;;;;;;;43.47;7.07;;;10.00;99.90;;;;;;4866691;29;38566;-80
2023/02/18 07:38:31;;;;;;;42.63;6.77;;;10.00;99.90;;;;;;4871810;29;37283;-80
2023/02/18 07:40:57;;;;;;;35.07;5.53;;;10.10;99.90;;;;;;4870530;29;37540;-80
2023/02/18 07:43:24;;;;;;;45.03;6.47;;;10.10;99.90;;;;;;4875371;29;38790;-79
2023/02/18 07:45:50;;;;;;;39.53;5.70;;;10.10;99.90;;;;;;4885491;29;36960;-79
2023/02/18 07:48:16;;;;;;;38.70;5.57;;;10.20;99.90;;;;;;4868621;29;37167;-79
2023/02/18 07:50:45;;;;;;;29.87;5.57;;;10.30;99.90;;;;;;4872079;29;38890;-80
2023/02/18 07:53:13;;;;;;;36.80;5.80;;;10.30;99.90;;;;;;4887733;29;37697;-81
2023/02/18 07:55:48;;;;;;;27.80;4.20;;;10.30;99.90;;;;;;4885400;29;37012;-80
2023/02/18 07:58:27;;;;;;;34.97;5.50;;;10.30;99.90;;;;;;4879671;29;35899;-82
2023/02/18 08:00:54;;;;;;;19.47;3.90;;;10.40;99.90;;;;;;4878475;29;38321;-79
2023/02/18 08:03:25;;;;;;;35.97;5.60;;;10.40;99.90;;;;;;4873968;29;37431;-81
2023/02/18 08:05:52;;;;;;;34.83;4.70;;;10.50;99.90;;;;;;4868542;29;38073;-80
2023/02/18 08:08:22;;;;;;;25.53;5.30;;;10.40;99.90;;;;;;4897333;29;35515;-80
2023/02/18 08:10:49;;;;;;;31.03;4.53;;;10.40;99.90;;;;;;4877378;29;38960;-80
2023/02/18 08:13:15;;;;;;;26.27;4.50;;;10.40;99.90;;;;;;4913513;23;38390;-78
2023/02/18 08:15:41;;;;;;;30.33;4.33;;;10.40;99.90;;;;;;4874390;29;39743;-78
2023/02/18 08:18:13;;;;;;;30.30;5.17;;;10.40;99.90;;;;;;4878559;29;37572;-78
2023/02/18 08:20:39;;;;;;;25.48;4.55;;;10.40;99.90;;;;;;4858758;29;37539;-81
2023/02/18 08:23:06;;;;;;;26.57;4.40;;;10.50;99.90;;;;;;4875607;29;36810;-81
2023/02/18 08:25:32;;;;;;;20.10;3.23;;;10.50;99.90;;;;;;4861405;29;37041;-81
2023/02/18 08:30:34;;;;;;;22.80;4.63;;;10.60;99.90;;;;;;4893790;23;20056;-82
2023/02/18 08:33:00;;;;;;;30.83;4.63;;;10.60;99.90;;;;;;4870487;29;38992;-82
2023/02/18 08:35:26;;;;;;;24.23;3.93;;;10.60;99.90;;;;;;4857446;29;39108;-78
2023/02/18 08:37:53;;;;;;;34.73;5.17;;;10.60;99.90;;;;;;4863346;29;36123;-80
2023/02/18 08:40:19;;;;;;;31.83;5.67;;;10.50;99.90;;;;;;4861311;29;37545;-80
2023/02/18 08:42:45;;;;;;;33.90;6.33;;;10.50;99.90;;;;;;4878885;29;38957;-78
2023/02/18 08:45:13;;;;;;;41.43;6.63;;;10.50;99.90;;;;;;4877371;29;38291;-79
2023/02/18 08:47:39;;;;;;;30.17;5.40;;;10.50;99.90;;;;;;4859760;29;38152;-80
2023/02/18 08:50:05;;;;;;;31.80;5.03;;;10.50;99.90;;;;;;4875762;29;38271;-80
2023/02/18 08:52:31;;;;;;;29.27;4.50;;;10.50;99.90;;;;;;4878504;29;39515;-77
2023/02/18 08:54:58;;;;;;;25.90;4.87;;;10.50;99.90;;;;;;4861426;29;37315;-81
2023/02/18 08:57:24;;;;;;;32.50;4.43;;;10.50;99.90;;;;;;4859999;29;35847;-78
2023/02/18 08:59:50;;;;;;;30.00;4.50;;;10.60;99.90;;;;;;4855880;29;37734;-78
2023/02/18 09:02:16;;;;;;;27.00;3.93;;;10.60;99.90;;;;;;4858837;29;37030;-78
2023/02/18 09:04:42;;;;;;;33.27;4.73;;;10.60;99.90;;;;;;4878049;29;37944;-79
2023/02/18 09:07:08;;;;;;;24.63;4.30;;;10.70;99.90;;;;;;4876090;29;37668;-79
2023/02/18 09:12:03;;;;;;;25.70;4.47;;;10.70;99.90;;;;;;4892224;29;20056;-79
2023/02/18 09:14:29;;;;;;;29.03;3.87;;;10.80;99.90;;;;;;4880453;29;38689;-79
2023/02/18 09:16:57;;;;;;;26.37;3.93;;;10.90;99.90;;;;;;4878384;29;37252;-79
2023/02/18 09:19:23;;;;;;;19.43;4.47;;;10.90;99.90;;;;;;4894525;29;39763;-79
2023/02/18 09:21:51;;;;;;;28.07;5.10;;;10.90;99.90;;;;;;4872541;29;37763;-79
2023/02/18 09:24:19;;;;;;;25.63;4.87;;;10.90;99.90;;;;;;4868776;29;37066;-79
2023/02/18 09:26:45;;;;;;;23.33;4.53;;;10.90;99.90;;;;;;4888927;29;38227;-79
2023/02/18 09:29:11;;;;;;;31.30;4.73;;;10.90;99.90;;;;;;4890317;29;39880;-79
2023/02/18 09:31:38;;;;;;;22.20;4.60;;;11.00;99.90;;;;;;4875582;29;36923;-78
2023/02/18 09:34:04;;;;;;;30.77;5.03;;;10.90;99.90;;;;;;4893358;29;40682;-79
2023/02/18 09:36:31;;;;;;;34.07;5.40;;;10.90;99.90;;;;;;4876801;29;35860;-79
2023/02/18 09:38:57;;;;;;;30.37;5.17;;;10.90;99.90;;;;;;4877789;29;38448;-79
2023/02/18 09:41:33;;;;;;;22.23;4.43;;;10.90;99.90;;;;;;4878662;29;37630;-80
2023/02/18 09:44:25;;;;;;;33.27;5.67;;;10.90;99.90;;;;;;4878716;29;37048;-79
2023/02/18 09:47:06;;;;;;;33.95;5.68;;;10.90;99.90;;;;;;4892921;29;49206;-79
2023/02/18 09:49:37;;;;;;;32.53;4.70;;;10.90;99.90;;;;;;4890882;29;48459;-79
2023/02/18 09:52:22;;;;;;;33.33;5.30;;;11.00;99.90;;;;;;4879615;29;37429;-79
2023/02/18 09:54:50;;;;;;;32.20;5.90;;;11.00;99.90;;;;;;4881420;29;38180;-79
2023/02/18 09:57:41;;;;;;;31.85;4.90;;;11.00;99.90;;;;;;4875768;29;37232;-80
2023/02/18 10:00:17;;;;;;;34.10;5.50;;;11.00;99.90;;;;;;4873921;29;39376;-80
2023/02/18 10:03:01;;;;;;;25.17;4.77;;;11.00;99.90;;;;;;4883934;29;46852;-79
2023/02/18 10:08:37;;;;;;;31.30;5.53;;;11.00;99.90;;;;;;4909494;29;20041;-78
2023/02/18 10:11:03;;;;;;;30.63;5.03;;;11.00;99.90;;;;;;4884526;29;47174;-80
2023/02/18 10:13:33;;;;;;;30.70;4.90;;;11.10;99.90;;;;;;4905322;29;38839;-80
2023/02/18 10:16:00;;;;;;;29.07;4.50;;;11.10;99.90;;;;;;4935124;23;38763;-82
2023/02/18 10:18:30;;;;;;;29.00;4.95;;;11.10;99.90;;;;;;4867245;29;47944;-80
2023/02/18 10:21:20;;;;;;;35.95;6.30;;;11.10;99.90;;;;;;4851743;29;40425;-80
2023/02/18 10:24:04;;;;;;;31.53;4.07;;;11.10;99.90;;;;;;4843538;29;47137;-79
2023/02/18 10:26:34;;;;;;;23.27;4.82;;;11.20;99.90;;;;;;4850217;29;47589;-80
2023/02/18 10:29:01;;;;;;;25.50;5.63;;;11.20;99.90;;;;;;4865892;29;36422;-78
2023/02/18 10:31:38;;;;;;;36.90;5.27;;;11.20;99.90;;;;;;4854517;29;38152;-79
2023/02/18 10:34:16;;;;;;;30.57;4.50;;;11.20;99.90;;;;;;4843830;29;37517;-80
2023/02/18 10:36:51;;;;;;;30.63;4.60;;;11.20;99.90;;;;;;4841427;29;37042;-78
2023/02/18 10:39:31;;;;;;;32.00;4.97;;;11.20;99.90;;;;;;4841956;29;36644;-79
2023/02/18 10:42:33;;;;;;;30.13;4.55;;;11.20;99.90;;;;;;4842336;29;38136;-79
2023/02/18 10:45:22;;;;;;;29.88;4.30;;;11.20;99.90;;;;;;4796345;29;48573;-80
2023/02/18 10:48:03;;;;;;;33.70;4.68;;;11.20;99.90;;;;;;4846427;29;46630;-79
2023/02/18 10:50:32;;;;;;;34.30;5.18;;;11.30;99.90;;;;;;4854133;29;47397;-79
2023/02/18 10:53:11;;;;;;;26.15;4.82;;;11.30;99.90;;;;;;4847823;29;37510;-79
2023/02/18 10:55:45;;;;;;;21.10;3.63;;;11.40;99.90;;;;;;4837168;29;47499;-80
2023/02/18 10:58:27;;;;;;;33.40;4.70;;;11.40;99.90;;;;;;4822102;29;37249;-80
2023/02/18 11:00:55;;;;;;;23.83;4.00;;;11.40;99.90;;;;;;4839535;29;35760;-79
2023/02/18 11:03:42;;;;;;;24.92;4.82;;;11.50;99.90;;;;;;4831750;29;37279;-79
2023/02/18 11:06:45;;;;;;;23.45;4.00;;;11.50;99.90;;;;;;4836192;29;38603;-77
2023/02/18 11:09:30;;;;;;;20.23;4.25;;;11.70;99.90;;;;;;4815685;29;37477;-76
2023/02/18 11:12:02;;;;;;;29.05;4.28;;;11.80;99.90;;;;;;4833520;29;37509;-76
2023/02/18 11:14:44;;;;;;;29.45;4.30;;;11.90;99.90;;;;;;4852487;29;39240;-77
2023/02/18 11:17:28;;;;;;;29.17;4.55;;;11.90;99.90;;;;;;4842897;29;38398;-77
2023/02/18 11:19:57;;;;;;;30.08;4.78;;;11.90;99.90;;;;;;4811060;29;38065;-78
2023/02/18 11:22:32;;;;;;;21.95;3.97;;;12.00;99.90;;;;;;4834137;29;36057;-78
2023/02/18 11:25:17;;;;;;;28.42;5.20;;;12.00;99.90;;;;;;4832550;29;37724;-78
2023/02/18 11:27:52;;;;;;;22.65;3.92;;;12.10;99.90;;;;;;4856891;29;49306;-79
2023/02/18 11:30:32;;;;;;;20.27;4.00;;;12.10;99.90;;;;;;4858607;29;37462;-80
2023/02/18 11:33:20;;;;;;;20.23;4.35;;;12.20;99.90;;;;;;4860775;29;37786;-78
2023/02/18 11:35:52;;;;;;;20.58;4.93;;;12.20;99.90;;;;;;4850557;29;47497;-78
2023/02/18 11:38:28;;;;;;;27.85;4.75;;;12.00;99.90;;;;;;4846397;29;37780;-80
2023/02/18 11:41:08;;;;;;;26.95;5.07;;;12.00;99.90;;;;;;4853957;29;37145;-79
2023/02/18 11:43:39;;;;;;;27.88;4.60;;;12.00;99.90;;;;;;4855580;29;47315;-77
2023/02/18 11:46:13;;;;;;;23.98;4.28;;;12.10;99.90;;;;;;4867309;29;38579;-79
2023/02/18 11:48:44;;;;;;;28.38;4.68;;;12.00;99.90;;;;;;4882766;29;39336;-79
2023/02/18 11:51:35;;;;;;;30.42;5.13;;;12.00;99.90;;;;;;4858402;29;39724;-78
2023/02/18 11:54:24;;;;;;;31.98;5.78;;;11.90;99.90;;;;;;4865416;29;37509;-79
2023/02/18 11:57:01;;;;;;;27.25;4.35;;;11.90;99.90;;;;;;5087496;23;48753;-78
2023/02/18 11:59:31;;;;;;;24.27;4.13;;;12.00;99.90;;;;;;4914141;29;38933;-79
2023/02/18 12:02:01;;;;;;;29.75;4.70;;;11.90;99.90;;;;;;4909544;29;39475;-78
2023/02/18 12:04:55;;;;;;;28.00;4.32;;;11.90;99.90;;;;;;4907262;29;48787;-78
2023/02/18 12:07:46;;;;;;;27.35;5.93;;;11.90;99.90;;;;;;4893710;29;39026;-78
2023/02/18 12:10:29;;;;;;;23.80;4.57;;;11.80;99.90;;;;;;4884705;29;37370;-79
2023/02/18 12:13:27;;;;;;;28.15;4.63;;;11.90;99.90;;;;;;4906873;29;37097;-78
2023/02/18 12:15:59;;;;;;;24.70;4.55;;;12.00;99.90;;;;;;4890520;29;50003;-78
2023/02/18 12:19:03;;;;;;;22.38;4.45;;;11.90;99.90;;;;;;4890981;29;37644;-78
2023/02/18 12:21:47;;;;;;;23.33;4.70;;;12.00;99.90;;;;;;4893940;29;47057;-79
2023/02/18 12:24:21;;;;;;;25.67;4.50;;;12.10;99.90;;;;;;4902839;29;37964;-78
2023/02/18 12:27:32;;;;;;;22.67;4.93;;;12.10;99.90;;;;;;4895037;29;36609;-78
2023/02/18 12:30:49;;;;;;;35.53;5.18;;;12.00;99.90;;;;;;4871044;29;49271;-79
2023/02/18 12:33:45;;;;;;;27.58;3.97;;;12.10;99.90;;;;;;4873391;29;49195;-78
2023/02/18 12:36:21;;;;;;;28.45;4.88;;;12.10;99.90;;;;;;4891427;29;38459;-79
2023/02/18 12:39:01;;;;;;;28.10;4.45;;;12.10;99.90;;;;;;4891361;29;37787;-79
2023/02/18 12:41:56;;;;;;;29.70;4.72;;;12.30;99.90;;;;;;4892049;29;46704;-79
2023/02/18 12:44:44;;;;;;;25.17;4.60;;;12.30;99.90;;;;;;4905393;29;38252;-79
2023/02/18 12:47:37;;;;;;;29.10;4.97;;;12.30;99.90;;;;;;4909714;29;37465;-78
2023/02/18 12:50:47;;;;;;;29.65;4.80;;;12.40;99.90;;;;;;4911242;29;35961;-78
2023/02/18 12:53:35;;;;;;;22.77;4.30;;;12.50;99.90;;;;;;4890951;29;47653;-77
2023/02/18 12:56:06;;;;;;;29.42;5.57;;;12.40;99.90;;;;;;4911646;29;37775;-78
2023/02/18 12:58:50;;;;;;;31.50;5.43;;;12.40;99.90;;;;;;4910474;29;49351;-77
2023/02/18 13:01:43;;;;;;;30.35;4.97;;;12.50;99.90;;;;;;4922388;29;37821;-80
2023/02/18 13:04:17;;;;;;;21.13;4.03;;;12.60;99.90;;;;;;4908314;29;39000;-80
2023/02/18 13:07:08;;;;;;;28.40;5.30;;;12.80;99.90;;;;;;4928143;29;38520;-81
2023/02/18 13:09:59;;;;;;;23.90;3.92;;;12.80;99.90;;;;;;4925874;29;48404;-79
2023/02/18 13:12:50;;;;;;;24.40;4.72;;;12.80;99.90;;;;;;4897541;29;35745;-80